Time,TemperatureF,DewpointF,PressureIn,WindDirection,WindDirectionDegrees,WindSpeedMPH,WindSpeedGustMPH,Humidity,HourlyPrecipIn,Conditions,Clouds,dailyrainin,SoftwareType,DateUTC
2013-04-09 00:00:00,43.9,39.7,30.22,WSW,254,6.0,6.0,85,0.00,,FEW050,-99.99,VWS V12.07,2013-04-09 07:00:00,
2013-04-09 01:00:00,43.1,39.8,30.23,West,261,1.0,2.0,88,0.00,,SCT055,-99.99,VWS V12.07,2013-04-09 08:00:00,
2013-04-09 02:00:00,42.8,39.8,30.24,WSW,244,2.0,2.0,89,0.00,,CLR,-99.99,VWS V12.07,2013-04-09 09:00:00,
2013-04-09 03:00:00,42.9,40.2,30.23,West,265,1.0,1.0,90,0.00,,OVC055,-99.99,VWS V12.07,2013-04-09 10:00:00,
2013-04-09 04:00:00,43.2,40.5,30.24,West,261,1.0,1.0,90,0.00,,SCT021,-99.99,VWS V12.07,2013-04-09 11:00:00,
2013-04-09 05:00:00,43.2,39.6,30.26,WSW,250,1.0,2.0,87,0.00,,SCT044,-99.99,VWS V12.07,2013-04-09 12:00:00,
2013-04-09 06:00:00,43.2,39.6,30.25,WSW,257,0.0,1.0,87,0.00,,SCT045,-99.99,VWS V12.07,2013-04-09 13:00:00,
2013-04-09 07:00:00,42.3,39.6,30.26,SW,226,0.0,2.0,90,0.00,,OVC047,-99.99,VWS V12.07,2013-04-09 14:00:00,
2013-04-09 08:00:00,43.1,40.4,30.27,WSW,251,3.0,4.0,90,0.00,,BKN120,-99.99,VWS V12.07,2013-04-09 15:00:00,
2013-04-09 09:00:00,45.8,41.2,30.26,NW,323,0.0,1.0,84,0.00,,OVC100,-99.99,VWS V12.07,2013-04-09 16:00:00,
2013-04-09 10:00:00,47.7,41.5,30.27,NNW,330,3.0,4.0,79,0.00,,BKN100,-99.99,VWS V12.07,2013-04-09 17:00:00,
2013-04-09 11:00:00,48.8,41.6,30.29,West,265,2.0,2.0,76,0.00,,OVC080,-99.99,VWS V12.07,2013-04-09 18:00:00,
2013-04-09 12:00:00,49.1,40.8,30.28,WSW,246,1.0,5.0,73,0.00,,OVC090,-99.99,VWS V12.07,2013-04-09 19:00:00,
2013-04-09 13:00:00,50.7,40.5,30.28,ENE,66,0.0,1.0,68,0.00,,SCT080,-99.99,VWS V12.07,2013-04-09 20:00:00,
2013-04-09 14:00:00,51.6,41.0,30.26,WNW,289,0.0,2.0,67,0.00,,OVC060,-99.99,VWS V12.07,2013-04-09 21:00:00,
2013-04-09 15:00:00,51.4,41.6,30.25,NW,304,0.0,3.0,69,0.00,,OVC055,-99.99,VWS V12.07,2013-04-09 22:00:00,
2013-04-09 16:00:00,51.6,41.4,30.22,WSW,239,5.0,8.0,68,0.00,,OVC060,-99.99,VWS V12.07,2013-04-09 23:00:00,
2013-04-09 17:00:00,52.6,42.3,30.22,WSW,248,1.0,3.0,68,0.00,,OVC065,-99.99,VWS V12.07,2013-04-10 00:00:00,
2013-04-09 18:00:00,52.5,41.9,30.20,West,272,1.0,3.0,67,0.00,,OVC060,-99.99,VWS V12.07,2013-04-10 01:00:00,
2013-04-09 19:00:00,51.7,41.9,30.19,NW,305,0.0,1.0,69,0.00,,OVC055,-99.99,VWS V12.07,2013-04-10 02:00:00,
2013-04-09 20:00:00,51.0,40.8,30.17,West,281,1.0,1.0,68,0.00,,OVC085,-99.99,VWS V12.07,2013-04-10 03:00:00,
2013-04-09 21:00:00,51.0,40.1,30.16,WSW,248,3.0,5.0,66,0.00,,OVC085,-99.99,VWS V12.07,2013-04-10 04:00:00,
2013-04-09 22:00:00,49.8,41.9,30.15,West,260,5.0,5.0,74,0.00,,OVC046,-99.99,VWS V12.07,2013-04-10 05:00:00,
2013-04-09 23:00:00,50.4,40.6,30.13,West,278,2.0,5.0,69,0.00,,OVC042,-99.99,VWS V12.07,2013-04-10 06:00:00,